Time;durP1;ratioP1;P1;durP2;ratioP2;P2;SDS_P1;SDS_P2;PMS_P1;PMS_P2;Temp;Humidity;BMP_temperature;BMP_pressure;BME280_temperature;BME280_humidity;BME280_pressure;Samples;Min_cycle;Max_cycle;Signal;HPM_P1;HPM_P2
2021/06/27 00:01:08;;;;;;;7.83;7.23;;;26.40;57.60;;;;;;4988880;28;20196;-64
2021/06/27 00:03:38;;;;;;;8.00;7.30;;;26.40;57.60;;;;;;4980708;28;20587;-63
2021/06/27 00:06:08;;;;;;;8.33;7.73;;;26.40;57.60;;;;;;4978903;28;20568;-63
2021/06/27 00:08:38;;;;;;;8.13;7.53;;;26.40;57.50;;;;;;4986455;28;20308;-63
2021/06/27 00:11:08;;;;;;;8.10;7.50;;;26.30;57.50;;;;;;4983991;28;20200;-63
2021/06/27 00:13:41;;;;;;;8.53;7.83;;;26.40;57.60;;;;;;4986615;28;20200;-64
2021/06/27 00:16:10;;;;;;;8.85;8.05;;;26.30;57.60;;;;;;4978388;28;20435;-63
2021/06/27 00:18:42;;;;;;;8.93;8.23;;;26.30;57.70;;;;;;4990501;28;20200;-63
2021/06/27 00:21:13;;;;;;;8.60;8.00;;;26.30;57.50;;;;;;4981328;28;20213;-63
2021/06/27 00:23:46;;;;;;;7.60;7.10;;;26.30;57.60;;;;;;4988505;28;20244;-63
2021/06/27 00:26:20;;;;;;;8.73;8.03;;;26.30;57.70;;;;;;4983972;28;20252;-63
2021/06/27 00:28:50;;;;;;;8.20;7.60;;;26.30;57.70;;;;;;4980715;28;20862;-63
2021/06/27 00:31:19;;;;;;;8.73;8.03;;;26.30;57.70;;;;;;4980883;28;20200;-63
2021/06/27 00:33:48;;;;;;;8.40;7.80;;;26.30;57.60;;;;;;4986866;28;20200;-63
2021/06/27 00:36:18;;;;;;;8.10;7.50;;;26.30;57.80;;;;;;4982147;28;20196;-63
2021/06/27 00:38:47;;;;;;;8.23;7.53;;;26.30;57.70;;;;;;4989717;28;20214;-63
2021/06/27 00:41:15;;;;;;;8.57;7.97;;;26.30;57.70;;;;;;4984517;28;20196;-63
2021/06/27 00:43:43;;;;;;;8.73;8.03;;;26.30;57.80;;;;;;4987751;28;20220;-63
2021/06/27 00:46:14;;;;;;;8.23;7.60;;;26.30;57.80;;;;;;4983785;28;20211;-63
2021/06/27 00:48:44;;;;;;;8.60;7.97;;;26.20;57.60;;;;;;4978955;28;20267;-63
2021/06/27 00:51:18;;;;;;;8.30;7.60;;;26.30;57.70;;;;;;4988134;28;20199;-64
2021/06/27 00:53:53;;;;;;;8.30;7.70;;;26.20;57.80;;;;;;4977514;28;20189;-64
2021/06/27 00:56:24;;;;;;;8.40;7.70;;;26.20;57.80;;;;;;4989581;28;20192;-63
2021/06/27 00:58:54;;;;;;;8.83;8.03;;;26.20;57.70;;;;;;4978456;28;20332;-63
2021/06/27 01:01:26;;;;;;;8.40;7.80;;;26.20;57.60;;;;;;4988118;28;20201;-63
2021/06/27 01:03:57;;;;;;;8.60;7.80;;;26.20;57.80;;;;;;4980821;28;20208;-64
2021/06/27 01:06:25;;;;;;;8.20;7.40;;;26.20;57.80;;;;;;4982440;28;20188;-64
2021/06/27 01:08:55;;;;;;;8.77;8.07;;;26.20;57.80;;;;;;4983394;28;20818;-63
2021/06/27 01:11:22;;;;;;;8.60;7.83;;;26.10;57.70;;;;;;4988122;28;20201;-63
2021/06/27 01:13:51;;;;;;;8.50;7.90;;;26.10;57.60;;;;;;4980830;28;20219;-64
2021/06/27 01:16:19;;;;;;;8.57;7.87;;;26.10;57.60;;;;;;4984774;28;20508;-64
2021/06/27 01:18:54;;;;;;;8.00;7.40;;;26.20;57.70;;;;;;4987737;28;20231;-64
2021/06/27 01:21:23;;;;;;;8.67;7.97;;;26.20;57.60;;;;;;4985199;28;20209;-64
2021/06/27 01:23:54;;;;;;;8.80;8.10;;;26.20;57.60;;;;;;4970669;28;20247;-63
2021/06/27 01:26:21;;;;;;;8.47;7.87;;;26.10;57.60;;;;;;4983273;28;20244;-63
2021/06/27 01:28:52;;;;;;;8.53;7.83;;;26.10;57.60;;;;;;4977133;28;20221;-63
2021/06/27 01:31:24;;;;;;;9.30;8.50;;;26.10;57.60;;;;;;4976305;28;20212;-63
2021/06/27 01:33:52;;;;;;;8.43;7.73;;;26.10;57.60;;;;;;4985078;28;20199;-63
2021/06/27 01:36:19;;;;;;;9.00;8.13;;;26.10;57.60;;;;;;4977920;28;20202;-63
2021/06/27 01:38:50;;;;;;;8.57;7.87;;;26.10;57.50;;;;;;4975515;28;20207;-63
2021/06/27 01:41:19;;;;;;;8.07;7.37;;;26.10;57.40;;;;;;4978729;28;20220;-63
2021/06/27 01:43:48;;;;;;;8.43;7.80;;;26.10;57.40;;;;;;4991626;28;20215;-63
2021/06/27 01:46:18;;;;;;;7.77;7.20;;;26.10;57.40;;;;;;4978962;28;20216;-63
2021/06/27 01:48:50;;;;;;;8.87;8.27;;;26.10;57.30;;;;;;4988070;28;20209;-63
2021/06/27 01:51:18;;;;;;;8.83;8.17;;;26.10;57.30;;;;;;4979688;28;20506;-63
2021/06/27 01:53:46;;;;;;;8.63;7.97;;;26.10;57.40;;;;;;4983213;28;20309;-63
2021/06/27 01:56:13;;;;;;;7.97;7.40;;;26.10;57.40;;;;;;4983203;28;20189;-63
2021/06/27 01:58:53;;;;;;;8.17;7.57;;;26.00;57.80;;;;;;4975938;28;20205;-63
2021/06/27 02:01:37;;;;;;;8.17;7.50;;;26.00;57.30;;;;;;4984323;28;20201;-64
2021/06/27 02:04:09;;;;;;;8.83;8.13;;;26.00;57.10;;;;;;4983085;28;20211;-63
2021/06/27 02:06:42;;;;;;;7.67;7.17;;;26.00;57.20;;;;;;4986503;28;20200;-63
2021/06/27 02:09:13;;;;;;;8.23;7.63;;;26.00;57.00;;;;;;4980214;28;20233;-63
2021/06/27 02:11:44;;;;;;;8.07;7.47;;;26.00;57.10;;;;;;4989639;28;20189;-63
2021/06/27 02:14:12;;;;;;;8.50;7.80;;;26.00;57.00;;;;;;4981526;28;20287;-63
2021/06/27 02:16:41;;;;;;;8.33;7.63;;;26.00;57.00;;;;;;4988418;28;20205;-63
2021/06/27 02:19:11;;;;;;;8.27;7.67;;;26.00;56.90;;;;;;4980685;28;20197;-63
2021/06/27 02:21:40;;;;;;;8.07;7.47;;;26.00;56.90;;;;;;4983891;28;20724;-63
2021/06/27 02:24:12;;;;;;;8.07;7.47;;;26.00;56.80;;;;;;4981744;28;20232;-64
2021/06/27 02:26:42;;;;;;;8.73;8.07;;;25.90;56.70;;;;;;4984818;28;20200;-64
2021/06/27 02:29:10;;;;;;;8.40;7.80;;;26.00;56.70;;;;;;4983281;28;20220;-63
2021/06/27 02:31:48;;;;;;;8.50;7.90;;;26.00;56.70;;;;;;4985743;28;20201;-63
2021/06/27 02:34:15;;;;;;;9.27;8.43;;;25.90;56.60;;;;;;4978063;28;20204;-63
2021/06/27 02:36:42;;;;;;;8.70;8.00;;;26.00;56.60;;;;;;4983923;28;20595;-63
2021/06/27 02:39:09;;;;;;;8.10;7.50;;;25.90;56.60;;;;;;4985614;28;20201;-63
2021/06/27 02:41:38;;;;;;;8.40;7.80;;;25.90;56.50;;;;;;4983983;28;20205;-64
2021/06/27 02:44:07;;;;;;;8.20;7.60;;;25.90;56.40;;;;;;4986276;28;20242;-63
2021/06/27 02:46:38;;;;;;;8.03;7.27;;;25.90;56.40;;;;;;4987520;28;20219;-63
2021/06/27 02:49:06;;;;;;;8.83;8.13;;;25.90;56.30;;;;;;4979441;28;20319;-63
2021/06/27 02:51:34;;;;;;;7.90;7.30;;;25.90;56.30;;;;;;4985582;28;20743;-63
2021/06/27 02:54:02;;;;;;;8.10;7.47;;;25.90;56.30;;;;;;4979663;28;20192;-63
2021/06/27 02:56:33;;;;;;;8.00;7.40;;;25.90;56.20;;;;;;4983107;28;20212;-63
2021/06/27 02:59:03;;;;;;;7.93;7.30;;;25.90;56.20;;;;;;4991986;28;20626;-63
2021/06/27 03:01:31;;;;;;;7.97;7.37;;;25.90;56.10;;;;;;4983899;28;20196;-64
2021/06/27 03:04:02;;;;;;;8.33;7.63;;;25.90;56.00;;;;;;4992260;28;20656;-63
2021/06/27 03:06:37;;;;;;;8.43;7.73;;;25.90;56.00;;;;;;4985748;28;20290;-63
2021/06/27 03:09:08;;;;;;;8.70;8.03;;;25.80;55.90;;;;;;4979529;28;20223;-63
2021/06/27 03:11:35;;;;;;;8.63;7.93;;;25.90;55.90;;;;;;4986550;28;20197;-63
2021/06/27 03:14:05;;;;;;;8.50;7.80;;;25.90;55.80;;;;;;4988612;28;20750;-63
2021/06/27 03:16:34;;;;;;;8.40;7.70;;;25.90;55.80;;;;;;4989843;28;20251;-64
2021/06/27 03:19:04;;;;;;;7.63;7.03;;;25.90;55.70;;;;;;4987051;28;20223;-64
2021/06/27 03:21:32;;;;;;;8.13;7.53;;;25.90;55.60;;;;;;4988700;28;20195;-64
2021/06/27 03:23:58;;;;;;;9.00;8.30;;;25.90;55.60;;;;;;4983819;28;20247;-64
2021/06/27 03:26:27;;;;;;;8.20;7.57;;;25.90;55.60;;;;;;4985201;28;20420;-64
2021/06/27 03:28:57;;;;;;;7.93;7.33;;;25.80;55.40;;;;;;4983125;28;20225;-64
2021/06/27 03:31:23;;;;;;;7.60;7.07;;;25.80;55.40;;;;;;4991441;28;20201;-63
2021/06/27 03:33:57;;;;;;;8.37;7.77;;;25.80;55.30;;;;;;4983818;28;20223;-63
2021/06/27 03:36:28;;;;;;;8.60;7.90;;;25.80;55.30;;;;;;4991041;28;20192;-63
2021/06/27 03:39:10;;;;;;;8.17;7.57;;;25.80;55.30;;;;;;4985641;28;20204;-63
2021/06/27 03:41:46;;;;;;;8.13;7.43;;;25.80;55.20;;;;;;4990371;28;20205;-63
2021/06/27 03:44:15;;;;;;;8.13;7.53;;;25.80;55.20;;;;;;4984667;28;20196;-63
2021/06/27 03:46:42;;;;;;;7.83;7.23;;;25.80;55.10;;;;;;4979781;28;20657;-63
2021/06/27 03:49:13;;;;;;;8.37;7.67;;;25.80;55.00;;;;;;4985107;28;20223;-63
2021/06/27 03:51:43;;;;;;;7.70;7.10;;;25.80;55.00;;;;;;4990244;28;20211;-63
2021/06/27 03:54:11;;;;;;;7.60;7.10;;;25.80;54.90;;;;;;4971285;28;20224;-63
2021/06/27 03:56:40;;;;;;;8.23;7.43;;;25.80;54.90;;;;;;4978471;28;20193;-64
2021/06/27 03:59:08;;;;;;;7.53;6.93;;;25.80;54.80;;;;;;4986625;28;20766;-64
2021/06/27 04:01:37;;;;;;;7.70;7.00;;;25.80;54.80;;;;;;4983257;28;20639;-65
2021/06/27 04:04:07;;;;;;;8.03;7.43;;;25.80;54.70;;;;;;4989944;28;20270;-65
2021/06/27 04:06:35;;;;;;;7.70;7.10;;;25.80;54.70;;;;;;4983563;28;20676;-62
2021/06/27 04:09:04;;;;;;;7.77;7.17;;;25.80;54.70;;;;;;4990751;28;20207;-63
2021/06/27 04:11:34;;;;;;;7.30;6.80;;;25.80;54.70;;;;;;4982227;28;20638;-64
2021/06/27 04:14:02;;;;;;;7.27;6.77;;;25.80;54.60;;;;;;4991235;28;20215;-64
2021/06/27 04:16:30;;;;;;;7.80;7.20;;;25.80;54.60;;;;;;4985094;28;20201;-64
2021/06/27 04:18:57;;;;;;;7.50;6.87;;;25.80;54.60;;;;;;4989653;28;20204;-64
2021/06/27 04:21:27;;;;;;;7.10;6.50;;;25.80;54.60;;;;;;4979831;28;20204;-63
2021/06/27 04:24:02;;;;;;;7.43;6.80;;;25.80;54.60;;;;;;4980547;28;20234;-64
2021/06/27 04:26:30;;;;;;;7.47;6.83;;;25.80;54.60;;;;;;4980651;28;20193;-63
2021/06/27 04:28:59;;;;;;;7.23;6.73;;;25.80;54.50;;;;;;4966171;28;20196;-63
2021/06/27 04:31:28;;;;;;;7.20;6.70;;;25.70;54.40;;;;;;4986008;28;20523;-65
2021/06/27 04:33:55;;;;;;;7.60;7.00;;;25.70;54.40;;;;;;4986728;28;20761;-66
2021/06/27 04:36:25;;;;;;;7.93;7.23;;;25.80;54.40;;;;;;4983653;28;20551;-66
2021/06/27 04:38:54;;;;;;;7.97;7.17;;;25.80;54.40;;;;;;4986619;28;20197;-67
2021/06/27 04:41:23;;;;;;;7.30;6.63;;;25.70;54.30;;;;;;4984945;28;20636;-65
2021/06/27 04:43:53;;;;;;;7.03;6.43;;;25.70;54.30;;;;;;4979688;28;20193;-66
2021/06/27 04:46:22;;;;;;;6.80;6.30;;;25.70;54.30;;;;;;4980010;28;20205;-65
2021/06/27 04:48:51;;;;;;;6.83;6.33;;;25.70;54.30;;;;;;4982109;28;20239;-65
2021/06/27 04:51:20;;;;;;;7.13;6.53;;;25.70;54.30;;;;;;4988068;28;20220;-64
2021/06/27 04:53:50;;;;;;;6.87;6.27;;;25.70;54.30;;;;;;4955225;28;20235;-64
2021/06/27 04:56:21;;;;;;;6.93;6.43;;;25.70;54.30;;;;;;4990646;28;20203;-64
2021/06/27 04:58:52;;;;;;;8.00;6.20;;;25.70;54.20;;;;;;4980623;28;20205;-64
2021/06/27 05:01:19;;;;;;;7.10;6.57;;;25.70;54.30;;;;;;4973168;28;20214;-63
2021/06/27 05:03:49;;;;;;;7.27;6.67;;;25.70;54.20;;;;;;4983290;28;20256;-63
2021/06/27 05:06:16;;;;;;;7.13;6.53;;;25.70;54.20;;;;;;4991810;28;20193;-64
2021/06/27 05:08:45;;;;;;;6.87;6.27;;;25.70;54.30;;;;;;4983167;28;20201;-64
2021/06/27 05:11:12;;;;;;;6.90;6.40;;;25.70;54.20;;;;;;4957784;28;20227;-62
2021/06/27 05:13:44;;;;;;;7.93;7.33;;;25.70;54.20;;;;;;4981832;28;20212;-62
2021/06/27 05:16:13;;;;;;;7.60;6.97;;;25.70;54.20;;;;;;4989561;28;20192;-63
2021/06/27 05:18:54;;;;;;;7.30;6.70;;;25.70;54.20;;;;;;4983723;28;20227;-63
2021/06/27 05:21:23;;;;;;;7.17;6.53;;;25.70;54.20;;;;;;4986366;28;20205;-63
2021/06/27 05:23:51;;;;;;;6.80;6.20;;;25.70;54.10;;;;;;4983695;28;20267;-64
2021/06/27 05:26:26;;;;;;;7.40;6.80;;;25.70;54.20;;;;;;4980628;28;20262;-65
2021/06/27 05:28:54;;;;;;;7.17;6.50;;;25.70;54.10;;;;;;4974979;28;20193;-65
2021/06/27 05:31:22;;;;;;;6.57;6.07;;;25.70;54.10;;;;;;4967207;28;20216;-65
2021/06/27 05:33:51;;;;;;;6.77;6.27;;;25.70;54.10;;;;;;4975540;28;20380;-66
2021/06/27 05:36:20;;;;;;;6.83;6.33;;;25.70;54.10;;;;;;4978456;28;20209;-64
2021/06/27 05:38:47;;;;;;;6.60;6.10;;;25.70;54.00;;;;;;4979488;28;20197;-64
2021/06/27 05:41:16;;;;;;;6.97;6.47;;;25.70;54.00;;;;;;4978948;28;20208;-62
2021/06/27 05:43:45;;;;;;;6.50;6.00;;;25.70;54.00;;;;;;4974732;28;20267;-63
2021/06/27 05:46:15;;;;;;;6.87;6.37;;;25.70;53.90;;;;;;4983729;28;20210;-64
2021/06/27 05:48:44;;;;;;;6.80;6.30;;;25.70;53.90;;;;;;4977752;28;20197;-63
2021/06/27 05:51:11;;;;;;;7.30;6.70;;;25.70;53.90;;;;;;4981951;28;20259;-63
2021/06/27 05:53:39;;;;;;;6.87;6.37;;;25.70;53.80;;;;;;4987221;28;20537;-63
2021/06/27 05:56:09;;;;;;;6.97;6.37;;;25.70;53.80;;;;;;4978282;28;20196;-62
2021/06/27 05:58:39;;;;;;;6.70;6.20;;;25.70;53.80;;;;;;4995298;28;20203;-62
2021/06/27 06:01:07;;;;;;;7.17;6.57;;;25.70;53.80;;;;;;4998945;28;20518;-62
2021/06/27 06:03:37;;;;;;;6.57;6.07;;;25.70;53.80;;;;;;4980601;28;20219;-63
2021/06/27 06:06:06;;;;;;;6.07;5.57;;;25.70;53.80;;;;;;4985977;28;20197;-64
2021/06/27 06:08:41;;;;;;;7.27;6.67;;;25.70;53.80;;;;;;4988318;28;20688;-64
2021/06/27 06:11:09;;;;;;;6.83;6.07;;;25.70;53.80;;;;;;4987114;28;20215;-63
2021/06/27 06:13:39;;;;;;;6.73;6.23;;;25.70;53.70;;;;;;4983772;28;20199;-64
2021/06/27 06:16:21;;;;;;;6.63;6.13;;;25.70;53.70;;;;;;4989404;28;20283;-64
2021/06/27 06:18:51;;;;;;;7.10;6.50;;;25.70;53.70;;;;;;4985107;28;20209;-64
2021/06/27 06:21:18;;;;;;;6.60;6.10;;;25.70;53.70;;;;;;4989746;28;20275;-62
2021/06/27 06:23:49;;;;;;;6.60;6.03;;;25.70;53.70;;;;;;4984209;28;20247;-62
2021/06/27 06:26:23;;;;;;;6.50;6.00;;;25.70;53.70;;;;;;4983974;28;20200;-64
2021/06/27 06:28:51;;;;;;;6.70;6.20;;;25.70;53.70;;;;;;4983484;28;20209;-65
2021/06/27 06:31:21;;;;;;;6.80;6.20;;;25.70;53.70;;;;;;4989854;28;20341;-65
2021/06/27 06:33:52;;;;;;;6.83;6.23;;;25.70;53.80;;;;;;4982956;28;20203;-64
2021/06/27 06:36:22;;;;;;;6.43;5.93;;;25.70;53.80;;;;;;4985409;28;20208;-62
2021/06/27 06:38:51;;;;;;;6.60;6.00;;;25.80;53.80;;;;;;4976067;28;20192;-63
2021/06/27 06:41:22;;;;;;;5.93;5.53;;;25.70;53.70;;;;;;4987727;28;20229;-61
2021/06/27 06:43:50;;;;;;;7.80;7.10;;;25.70;53.70;;;;;;4984881;28;20207;-68
2021/06/27 06:46:21;;;;;;;8.53;7.67;;;25.70;54.30;;;;;;4985183;28;20240;-68
2021/06/27 06:48:50;;;;;;;8.70;7.90;;;25.80;54.40;;;;;;4985006;28;20216;-67
2021/06/27 06:51:23;;;;;;;9.30;8.40;;;25.80;54.40;;;;;;4979812;28;20244;-69
2021/06/27 06:53:51;;;;;;;14.77;8.97;;;25.80;54.50;;;;;;4982446;28;20200;-69
2021/06/27 06:56:21;;;;;;;9.33;8.47;;;25.80;54.50;;;;;;4982656;28;20209;-69
2021/06/27 06:58:49;;;;;;;10.40;8.43;;;25.90;54.50;;;;;;4984221;28;20197;-70
2021/06/27 07:01:20;;;;;;;10.03;9.23;;;25.90;54.50;;;;;;4980628;28;20205;-67
2021/06/27 07:03:51;;;;;;;10.03;9.03;;;25.90;54.50;;;;;;4984841;28;20287;-69
2021/06/27 07:06:22;;;;;;;10.70;9.50;;;26.00;54.40;;;;;;4978669;28;20197;-71
2021/06/27 07:08:49;;;;;;;9.30;8.50;;;26.10;54.30;;;;;;4987625;28;20208;-72
2021/06/27 07:11:17;;;;;;;9.47;8.67;;;26.10;54.20;;;;;;4978605;28;20224;-71
2021/06/27 07:13:45;;;;;;;10.73;9.73;;;26.20;54.20;;;;;;4983958;28;20216;-68
2021/06/27 07:16:15;;;;;;;10.30;9.30;;;26.20;54.00;;;;;;4969537;28;20243;-69
2021/06/27 07:18:45;;;;;;;10.00;9.10;;;26.20;54.00;;;;;;4987735;28;20530;-71
2021/06/27 07:21:15;;;;;;;10.03;9.23;;;26.30;53.90;;;;;;4982188;28;20209;-67
2021/06/27 07:23:46;;;;;;;9.73;8.93;;;26.30;53.90;;;;;;4988718;28;20244;-68
2021/06/27 07:26:17;;;;;;;9.80;8.83;;;26.40;53.70;;;;;;4983287;28;20566;-68
2021/06/27 07:28:45;;;;;;;10.97;8.83;;;26.40;53.40;;;;;;4984210;28;20213;-69
2021/06/27 07:31:14;;;;;;;9.73;8.83;;;26.50;53.40;;;;;;4980335;28;20247;-69
2021/06/27 07:33:47;;;;;;;9.57;8.30;;;26.50;53.40;;;;;;4984553;28;20227;-69
2021/06/27 07:36:15;;;;;;;9.03;8.23;;;26.60;53.20;;;;;;4982548;28;20209;-69
2021/06/27 07:38:44;;;;;;;9.03;8.23;;;26.60;53.20;;;;;;4988318;28;20211;-67
2021/06/27 07:41:14;;;;;;;9.70;8.90;;;26.60;53.20;;;;;;4986650;28;20208;-69
2021/06/27 07:43:51;;;;;;;9.40;8.60;;;26.70;53.10;;;;;;4989199;28;20205;-70
2021/06/27 07:46:23;;;;;;;9.40;8.60;;;26.70;52.90;;;;;;4993045;28;20192;-69
2021/06/27 07:48:54;;;;;;;8.70;8.00;;;26.80;53.00;;;;;;4991606;28;20212;-69
2021/06/27 07:51:22;;;;;;;9.07;8.23;;;26.80;53.10;;;;;;4994487;28;20239;-69
2021/06/27 07:53:49;;;;;;;8.93;7.60;;;26.80;53.00;;;;;;4994271;28;20216;-70
2021/06/27 07:56:20;;;;;;;7.43;6.73;;;26.80;52.70;;;;;;4997464;28;20194;-69
2021/06/27 07:58:56;;;;;;;7.83;7.13;;;26.90;52.70;;;;;;4988628;28;20208;-69
2021/06/27 08:01:24;;;;;;;7.53;6.93;;;26.90;52.60;;;;;;4994859;28;20267;-69
2021/06/27 08:03:53;;;;;;;7.00;6.40;;;26.80;52.60;;;;;;4984935;28;20857;-68
2021/06/27 08:06:25;;;;;;;9.37;6.97;;;26.80;52.70;;;;;;4984536;28;20204;-68
2021/06/27 08:08:53;;;;;;;8.97;8.17;;;26.80;52.70;;;;;;4987323;28;20201;-71
2021/06/27 08:11:22;;;;;;;7.40;6.80;;;26.80;52.60;;;;;;4986061;28;20220;-73
2021/06/27 08:13:51;;;;;;;8.70;7.80;;;26.80;53.10;;;;;;4981385;28;20193;-74
2021/06/27 08:16:18;;;;;;;7.43;6.73;;;26.90;53.50;;;;;;4985969;28;20207;-69
2021/06/27 08:18:48;;;;;;;8.20;7.47;;;26.90;53.60;;;;;;4985013;28;20205;-68
2021/06/27 08:21:31;;;;;;;7.27;6.63;;;27.00;53.70;;;;;;4983542;28;20295;-70
2021/06/27 08:24:02;;;;;;;7.97;7.27;;;27.00;53.50;;;;;;4978870;28;20229;-70
2021/06/27 08:26:30;;;;;;;6.90;6.30;;;27.10;53.50;;;;;;4984521;28;20605;-72
2021/06/27 08:29:00;;;;;;;7.10;6.43;;;27.10;53.40;;;;;;4983364;28;20201;-74
2021/06/27 08:31:28;;;;;;;7.10;6.50;;;27.20;53.40;;;;;;4976054;28;20201;-72
2021/06/27 08:33:56;;;;;;;7.43;6.70;;;27.20;53.30;;;;;;4979028;28;20436;-73
2021/06/27 08:36:27;;;;;;;7.10;6.40;;;27.30;53.10;;;;;;4988994;28;20197;-69
2021/06/27 08:38:56;;;;;;;9.77;6.70;;;27.30;53.00;;;;;;4981250;28;20239;-68
2021/06/27 08:41:28;;;;;;;7.40;6.70;;;27.40;53.00;;;;;;4996278;28;20211;-68
2021/06/27 08:44:00;;;;;;;6.77;6.27;;;27.40;53.00;;;;;;4982951;28;20216;-69
2021/06/27 08:46:34;;;;;;;7.13;6.53;;;27.50;53.00;;;;;;4972611;28;20197;-71
2021/06/27 08:49:04;;;;;;;7.17;6.43;;;27.50;53.00;;;;;;4983315;28;20231;-71
2021/06/27 08:51:39;;;;;;;6.90;6.40;;;27.60;53.00;;;;;;4997300;28;20232;-72
2021/06/27 08:54:09;;;;;;;7.27;6.67;;;27.60;52.80;;;;;;4972524;28;20193;-73
2021/06/27 08:56:39;;;;;;;7.13;6.50;;;27.60;52.80;;;;;;5005849;28;20212;-73
2021/06/27 08:59:07;;;;;;;7.53;6.83;;;27.70;52.70;;;;;;4985854;28;20210;-71
2021/06/27 09:02:00;;;;;;;7.03;6.47;;;27.70;52.50;;;;;;4992594;28;20550;-72
2021/06/27 09:04:33;;;;;;;7.00;6.40;;;27.70;52.40;;;;;;4979810;28;20443;-70
2021/06/27 09:07:30;;;;;;;6.87;6.13;;;27.80;52.40;;;;;;4981582;28;20221;-71
2021/06/27 09:10:06;;;;;;;6.63;6.13;;;27.80;52.30;;;;;;4980439;28;20252;-70
2021/06/27 09:12:58;;;;;;;6.23;5.63;;;27.90;52.30;;;;;;4984857;28;20211;-70
2021/06/27 09:15:53;;;;;;;6.47;5.97;;;27.90;52.20;;;;;;4982975;28;20411;-70
2021/06/27 09:18:26;;;;;;;7.03;6.37;;;28.00;52.30;;;;;;4980407;28;20204;-70
2021/06/27 09:20:58;;;;;;;6.97;6.38;;;28.00;52.10;;;;;;4987537;28;20431;-71
2021/06/27 09:23:43;;;;;;;6.80;5.93;;;28.00;52.00;;;;;;4980380;28;20697;-72
2021/06/27 09:26:11;;;;;;;6.43;5.90;;;28.10;52.10;;;;;;4976684;28;20209;-70
2021/06/27 09:28:49;;;;;;;6.07;5.57;;;28.10;52.00;;;;;;4981343;28;20230;-69
2021/06/27 09:31:39;;;;;;;6.90;6.20;;;28.10;51.90;;;;;;4978424;28;20557;-69
2021/06/27 09:34:13;;;;;;;6.43;5.77;;;28.20;51.80;;;;;;4981105;28;20657;-72
2021/06/27 09:36:53;;;;;;;6.50;5.80;;;28.20;51.70;;;;;;4975503;28;20266;-70
2021/06/27 09:39:23;;;;;;;5.70;5.30;;;28.20;51.70;;;;;;4983541;28;20201;-71
2021/06/27 09:41:56;;;;;;;6.63;6.10;;;28.20;51.70;;;;;;4987503;28;20219;-69
2021/06/27 09:44:28;;;;;;;6.37;5.73;;;28.30;51.50;;;;;;4999623;28;20191;-71
2021/06/27 09:46:57;;;;;;;6.23;5.73;;;28.30;51.20;;;;;;4989564;28;20205;-72
2021/06/27 09:49:34;;;;;;;6.15;5.65;;;28.40;51.00;;;;;;4986387;28;20446;-72
2021/06/27 09:52:09;;;;;;;6.00;5.50;;;28.40;50.70;;;;;;4992166;28;20230;-74
2021/06/27 09:54:37;;;;;;;6.27;5.77;;;28.40;50.80;;;;;;4987075;28;20215;-74
2021/06/27 09:57:07;;;;;;;6.10;5.50;;;28.50;50.90;;;;;;4985538;28;20196;-73
2021/06/27 09:59:41;;;;;;;8.70;5.73;;;28.50;50.60;;;;;;4988084;28;20216;-71
2021/06/27 10:02:09;;;;;;;7.27;6.07;;;28.50;50.60;;;;;;4987243;28;20212;-67
2021/06/27 10:04:39;;;;;;;7.23;6.53;;;28.50;50.50;;;;;;4975080;28;20205;-66
2021/06/27 10:07:09;;;;;;;8.60;6.60;;;28.50;50.40;;;;;;4983437;28;20211;-67
2021/06/27 10:09:39;;;;;;;10.53;6.77;;;28.40;50.40;;;;;;4986336;28;20205;-67
2021/06/27 10:12:19;;;;;;;8.27;6.50;;;28.40;51.00;;;;;;4980896;28;20940;-67
2021/06/27 10:15:08;;;;;;;7.37;6.67;;;28.40;50.50;;;;;;4984581;28;20223;-67
2021/06/27 10:17:38;;;;;;;6.97;6.37;;;28.30;50.50;;;;;;4977843;28;20204;-67
2021/06/27 10:20:13;;;;;;;7.20;6.50;;;28.30;50.30;;;;;;4977762;28;20264;-68
2021/06/27 10:22:47;;;;;;;7.80;6.00;;;28.30;49.90;;;;;;4979385;28;20205;-68
2021/06/27 10:25:15;;;;;;;7.37;6.27;;;28.20;49.80;;;;;;4986560;28;20259;-69
2021/06/27 10:27:45;;;;;;;7.13;6.53;;;28.20;49.80;;;;;;4976370;28;20663;-69
2021/06/27 10:30:16;;;;;;;6.20;5.60;;;28.20;49.80;;;;;;4986970;28;20204;-68
2021/06/27 10:32:49;;;;;;;8.50;5.70;;;28.20;49.90;;;;;;4983578;28;20228;-68
2021/06/27 10:35:17;;;;;;;5.80;5.33;;;28.20;50.40;;;;;;4983751;28;20212;-70
2021/06/27 10:37:47;;;;;;;5.47;4.97;;;28.20;50.20;;;;;;4960367;28;20542;-70
2021/06/27 10:40:20;;;;;;;6.10;4.87;;;28.30;50.40;;;;;;4977666;28;20201;-67
2021/06/27 10:43:00;;;;;;;5.43;5.03;;;28.30;50.10;;;;;;4986114;28;20648;-67
2021/06/27 10:45:49;;;;;;;4.97;4.57;;;28.40;49.90;;;;;;4983449;28;20208;-68
2021/06/27 10:48:38;;;;;;;4.87;4.47;;;28.40;49.80;;;;;;4986872;28;20203;-69
2021/06/27 10:51:08;;;;;;;4.60;4.10;;;28.40;49.70;;;;;;4983282;28;20243;-69
2021/06/27 10:54:15;;;;;;;4.60;4.30;;;28.50;50.00;;;;;;4987106;28;20773;-69
2021/06/27 10:57:09;;;;;;;4.80;4.30;;;28.50;49.60;;;;;;4983270;28;20215;-71
2021/06/27 10:59:54;;;;;;;4.70;4.37;;;28.60;49.00;;;;;;4987151;28;20200;-71
2021/06/27 11:02:34;;;;;;;4.50;4.20;;;28.70;49.00;;;;;;4991490;28;20533;-69
2021/06/27 11:05:32;;;;;;;4.83;4.43;;;28.70;48.90;;;;;;4987146;28;20219;-69
2021/06/27 11:08:27;;;;;;;4.23;3.93;;;28.70;48.80;;;;;;4994629;28;20201;-69
2021/06/27 11:11:10;;;;;;;4.93;4.40;;;28.70;48.80;;;;;;4983439;28;20212;-70
2021/06/27 11:13:40;;;;;;;5.10;4.60;;;28.80;48.80;;;;;;4990267;28;20376;-68
2021/06/27 11:16:13;;;;;;;4.03;3.73;;;28.80;48.80;;;;;;4984322;28;20215;-67
2021/06/27 11:18:51;;;;;;;4.40;4.10;;;28.90;48.80;;;;;;4986265;28;20218;-66
2021/06/27 11:21:24;;;;;;;4.53;4.20;;;28.90;48.60;;;;;;4985944;28;20208;-70
2021/06/27 11:23:59;;;;;;;4.73;4.33;;;28.90;48.60;;;;;;4982756;28;20224;-66
2021/06/27 11:26:47;;;;;;;4.80;4.10;;;28.90;48.40;;;;;;4985144;28;20204;-66
2021/06/27 11:29:23;;;;;;;4.97;4.57;;;29.00;48.30;;;;;;4984185;28;20224;-66
2021/06/27 11:31:57;;;;;;;4.53;4.17;;;29.00;48.30;;;;;;4980277;28;20294;-67
2021/06/27 11:34:31;;;;;;;4.60;4.20;;;29.00;48.30;;;;;;4981203;28;20256;-66
2021/06/27 11:37:16;;;;;;;4.40;4.10;;;28.90;48.30;;;;;;4993307;28;20196;-66
2021/06/27 11:40:04;;;;;;;4.10;3.80;;;28.90;48.10;;;;;;4987296;28;20241;-67
2021/06/27 11:42:39;;;;;;;4.80;4.40;;;29.00;48.20;;;;;;4985773;28;21267;-67
2021/06/27 11:45:15;;;;;;;8.67;4.00;;;28.90;47.90;;;;;;4986376;28;20208;-66
2021/06/27 11:47:58;;;;;;;4.47;4.07;;;28.70;44.50;;;;;;4994556;28;20208;-65
2021/06/27 11:50:30;;;;;;;5.37;4.27;;;28.50;43.50;;;;;;4984339;28;20743;-66
2021/06/27 11:53:04;;;;;;;5.60;4.30;;;28.30;43.30;;;;;;4989565;28;20663;-65
2021/06/27 11:56:04;;;;;;;4.43;4.13;;;28.10;43.10;;;;;;4983646;28;20219;-66
2021/06/27 11:58:37;;;;;;;4.50;3.93;;;27.90;43.10;;;;;;4987585;28;20226;-65
2021/06/27 12:01:09;;;;;;;4.93;4.10;;;27.60;43.10;;;;;;4983227;28;20204;-65
2021/06/27 12:03:48;;;;;;;4.67;4.27;;;27.50;43.20;;;;;;4984832;28;20204;-67
2021/06/27 12:06:16;;;;;;;4.53;4.13;;;27.20;43.00;;;;;;4983361;28;20200;-64
2021/06/27 12:08:45;;;;;;;4.53;4.13;;;27.00;43.40;;;;;;4987626;28;20208;-64
2021/06/27 12:11:14;;;;;;;4.53;4.13;;;26.80;43.40;;;;;;4984240;28;20211;-63
2021/06/27 12:13:41;;;;;;;4.30;3.90;;;26.60;43.70;;;;;;4986730;28;20232;-63
2021/06/27 12:16:12;;;;;;;3.87;3.57;;;26.40;43.50;;;;;;4979967;28;20212;-64
2021/06/27 12:18:41;;;;;;;4.60;4.20;;;26.30;44.10;;;;;;4977850;28;20220;-64
2021/06/27 12:21:14;;;;;;;4.53;4.13;;;26.20;44.10;;;;;;4985613;28;20686;-62
2021/06/27 12:23:45;;;;;;;4.40;4.00;;;26.10;44.00;;;;;;4980553;28;20229;-66
2021/06/27 12:26:18;;;;;;;4.90;4.40;;;26.00;43.90;;;;;;4985790;28;20196;-65
2021/06/27 12:28:57;;;;;;;4.60;4.20;;;26.00;44.10;;;;;;4986009;28;20204;-63
2021/06/27 12:31:32;;;;;;;4.50;4.10;;;25.90;45.40;;;;;;4988078;28;20223;-65
2021/06/27 12:34:06;;;;;;;4.70;4.30;;;26.10;47.10;;;;;;4983623;28;20279;-66
2021/06/27 12:36:47;;;;;;;4.70;4.30;;;26.40;48.10;;;;;;4991411;28;20196;-66
2021/06/27 12:39:27;;;;;;;4.77;4.33;;;26.70;48.60;;;;;;4995389;28;20206;-66
2021/06/27 12:42:10;;;;;;;4.73;4.30;;;27.00;49.00;;;;;;4987620;28;20208;-67
2021/06/27 12:44:38;;;;;;;4.40;3.93;;;27.20;49.30;;;;;;4992286;28;20219;-67
2021/06/27 12:47:06;;;;;;;4.90;4.50;;;27.40;49.60;;;;;;4987655;28;20245;-64
2021/06/27 12:49:37;;;;;;;5.47;4.53;;;27.60;49.70;;;;;;4984457;28;20220;-64
2021/06/27 12:52:09;;;;;;;4.40;4.10;;;27.70;49.70;;;;;;4982155;28;20222;-63
2021/06/27 12:54:47;;;;;;;5.03;4.33;;;27.80;49.70;;;;;;4979465;28;20283;-63
2021/06/27 12:57:21;;;;;;;4.70;4.30;;;27.90;49.90;;;;;;4987472;28;20192;-63
2021/06/27 12:59:53;;;;;;;4.73;4.33;;;27.90;50.00;;;;;;4983709;28;20201;-62
2021/06/27 13:02:33;;;;;;;4.60;4.20;;;27.90;50.10;;;;;;4982064;28;20547;-66
2021/06/27 13:05:20;;;;;;;5.47;4.97;;;28.00;50.30;;;;;;4978579;28;20949;-66
2021/06/27 13:08:00;;;;;;;5.03;4.53;;;28.00;50.40;;;;;;4983920;28;20511;-66
2021/06/27 13:10:30;;;;;;;5.50;5.00;;;28.00;50.50;;;;;;4986753;28;20195;-62